Airfield :
LOGIN :

Register | Disclaimer

   EN    FR    IT 

 










Legend :    VFR   Marginal VFR   IFR   Intensive IFR   Very Intensive IFR
Visi :
Ceiling :
>= 8 km
>= 3000ft
5 to 8 km
1000 to 3000 ft
1500m to 5 km
500 to 1000 ft
800 to 1500m
200 to 500 ft
< 800m
< 200 ft
Symbols :   Thunderstorms  Fog  Heavy snow  Heavy precipitations  Wind > 20 kt
SIGMETs :     Misc.  Thunderstorms  Icing  Turbulence  Mountain Waves  Volcanic Ashes






- Airport Elevation : 170 ft
- IATA code : BGO


ENBR - Bergen , Flesland

CURRENT METAR :
  • 090650Z 15008KT 9999 VCSH FEW006 SCT012 BKN023 14/13 Q1027 TEMPO SCT008 BKN012 RMK WIND 1200FT 16012KT

EXPIRED METARs :
  • 090620Z 14008KT 9999 FEW006 SCT013 BKN020 14/13 Q1027 TEMPO SCT008 BKN012 RMK WIND 1200FT 16013KT
  • 090550Z 16007KT 9999 FEW006 SCT010 BKN015 14/13 Q1027 TEMPO SCT008 BKN012 RMK WIND 1200FT 15013KT
  • 090520Z 15007KT 9999 FEW006 SCT010 BKN017 14/13 Q1026 TEMPO SCT008 BKN012 RMK WIND 1200FT 16010KT
  • 090450Z 15006KT 9999 FEW008 BKN016 14/13 Q1026 TEMPO SCT008 BKN012 RMK WIND 1200FT 16012KT
  • 090420Z 15006KT 9999 FEW008 BKN016 14/13 Q1026 TEMPO SCT008 BKN012 RMK WIND 1200FT 15012KT

TAF TAF ENBR
Valid from the 09 at 06:00 until the 10 at 06:00 UTC


0906/1006 15009KT 9999 FEW008 BKN030
TEMPO 0906/0916 BKN009
PROB40
TEMPO 0906/0912 4000 RA BR



MET'MAP, your aeronautical weather chart ! - Copyright ORBIFLY December 2007 - Disclaimer

ORBIFLY MET'MAP TEAM :

Programming & Development : Alexandra Zaïnal
Original concept : Baudouin d'Aumeries
Technical & hardware support : Manuel Goepfert
Assistance : Marc-Olivier Méhu




SOURCES & CREDITS :

   NOAA